sensor_id;sensor_type;location;lat;lon;timestamp;P1;P2;P0
57563;PMS7003;43400;45.926;6.724;2022-09-16T00:02:17;0.00;0.00;0.00
57563;PMS7003;43400;45.926;6.724;2022-09-16T00:04:49;1.00;1.00;0.75
57563;PMS7003;43400;45.926;6.724;2022-09-16T00:07:24;1.00;1.00;0.75
57563;PMS7003;43400;45.926;6.724;2022-09-16T00:09:55;1.00;1.00;0.00
57563;PMS7003;43400;45.926;6.724;2022-09-16T00:12:27;0.00;0.00;0.00
57563;PMS7003;43400;45.926;6.724;2022-09-16T00:14:59;0.50;0.50;0.00
57563;PMS7003;43400;45.926;6.724;2022-09-16T00:17:31;0.80;0.80;0.00
57563;PMS7003;43400;45.926;6.724;2022-09-16T00:20:03;1.00;1.00;0.00
57563;PMS7003;43400;45.926;6.724;2022-09-16T00:22:36;1.00;1.00;0.40
57563;PMS7003;43400;45.926;6.724;2022-09-16T00:25:08;0.00;0.00;0.00
57563;PMS7003;43400;45.926;6.724;2022-09-16T00:27:40;0.00;0.00;0.00
57563;PMS7003;43400;45.926;6.724;2022-09-16T00:30:11;1.00;0.00;0.00
57563;PMS7003;43400;45.926;6.724;2022-09-16T00:32:43;0.60;0.00;0.00
57563;PMS7003;43400;45.926;6.724;2022-09-16T00:35:15;0.20;0.20;0.00
57563;PMS7003;43400;45.926;6.724;2022-09-16T00:37:47;1.00;1.00;1.00
57563;PMS7003;43400;45.926;6.724;2022-09-16T00:40:19;0.00;0.00;0.00
57563;PMS7003;43400;45.926;6.724;2022-09-16T00:42:50;0.00;0.00;0.00
57563;PMS7003;43400;45.926;6.724;2022-09-16T00:45:23;2.00;1.00;0.00
57563;PMS7003;43400;45.926;6.724;2022-09-16T00:47:59;1.00;0.00;0.00
57563;PMS7003;43400;45.926;6.724;2022-09-16T00:50:33;1.00;1.00;0.00
57563;PMS7003;43400;45.926;6.724;2022-09-16T00:53:15;1.60;1.00;0.60
57563;PMS7003;43400;45.926;6.724;2022-09-16T00:55:50;0.00;0.00;0.00
57563;PMS7003;43400;45.926;6.724;2022-09-16T00:58:27;0.80;0.80;0.80
57563;PMS7003;43400;45.926;6.724;2022-09-16T01:01:15;1.00;1.00;0.75
57563;PMS7003;43400;45.926;6.724;2022-09-16T01:03:48;1.00;1.00;1.00
57563;PMS7003;43400;45.926;6.724;2022-09-16T01:06:23;1.80;1.00;1.00
57563;PMS7003;43400;45.926;6.724;2022-09-16T01:08:57;1.00;0.00;0.00
57563;PMS7003;43400;45.926;6.724;2022-09-16T01:11:30;0.75;0.75;0.00
57563;PMS7003;43400;45.926;6.724;2022-09-16T01:14:02;1.75;1.00;1.00
57563;PMS7003;43400;45.926;6.724;2022-09-16T01:16:36;1.00;1.00;0.00
57563;PMS7003;43400;45.926;6.724;2022-09-16T01:31:35;0.80;0.80;0.00
57563;PMS7003;43400;45.926;6.724;2022-09-16T01:34:30;0.00;0.00;0.00
57563;PMS7003;43400;45.926;6.724;2022-09-16T01:45:42;1.00;1.00;0.00
57563;PMS7003;43400;45.926;6.724;2022-09-16T01:50:55;2.00;1.00;1.00
57563;PMS7003;43400;45.926;6.724;2022-09-16T01:53:38;0.00;0.00;0.00
57563;PMS7003;43400;45.926;6.724;2022-09-16T01:56:28;0.40;0.40;0.40
57563;PMS7003;43400;45.926;6.724;2022-09-16T01:59:09;1.00;1.00;0.00
57563;PMS7003;43400;45.926;6.724;2022-09-16T02:04:32;1.00;1.00;1.00
57563;PMS7003;43400;45.926;6.724;2022-09-16T02:07:08;1.00;1.00;1.00
57563;PMS7003;43400;45.926;6.724;2022-09-16T02:09:44;0.00;0.00;0.00
57563;PMS7003;43400;45.926;6.724;2022-09-16T02:12:23;1.00;1.00;1.00
57563;PMS7003;43400;45.926;6.724;2022-09-16T02:15:04;1.00;1.00;0.00
57563;PMS7003;43400;45.926;6.724;2022-09-16T02:17:41;1.00;1.00;0.25
57563;PMS7003;43400;45.926;6.724;2022-09-16T02:20:18;1.00;1.00;1.00
57563;PMS7003;43400;45.926;6.724;2022-09-16T02:23:03;0.75;0.75;0.25
57563;PMS7003;43400;45.926;6.724;2022-09-16T02:25:39;2.00;2.00;1.75
57563;PMS7003;43400;45.926;6.724;2022-09-16T02:28:15;0.60;0.60;0.00
57563;PMS7003;43400;45.926;6.724;2022-09-16T02:30:52;1.00;1.00;1.00
57563;PMS7003;43400;45.926;6.724;2022-09-16T02:33:31;1.00;1.00;1.00
57563;PMS7003;43400;45.926;6.724;2022-09-16T02:36:06;2.00;2.00;1.00
57563;PMS7003;43400;45.926;6.724;2022-09-16T02:38:42;2.00;2.00;1.00
57563;PMS7003;43400;45.926;6.724;2022-09-16T02:41:15;2.00;1.75;1.25
57563;PMS7003;43400;45.926;6.724;2022-09-16T02:43:47;2.00;2.00;1.00
57563;PMS7003;43400;45.926;6.724;2022-09-16T02:52:45;2.00;2.00;1.75
57563;PMS7003;43400;45.926;6.724;2022-09-16T02:55:45;2.00;2.00;1.00
57563;PMS7003;43400;45.926;6.724;2022-09-16T02:58:26;2.00;1.00;1.00
57563;PMS7003;43400;45.926;6.724;2022-09-16T03:00:59;1.00;1.00;0.50
57563;PMS7003;43400;45.926;6.724;2022-09-16T03:03:31;2.40;2.40;2.00
57563;PMS7003;43400;45.926;6.724;2022-09-16T03:06:05;2.00;1.75;1.75
57563;PMS7003;43400;45.926;6.724;2022-09-16T03:08:45;2.00;2.00;1.20
57563;PMS7003;43400;45.926;6.724;2022-09-16T03:23:25;1.00;1.00;1.00
57563;PMS7003;43400;45.926;6.724;2022-09-16T03:26:08;2.00;2.00;2.00
57563;PMS7003;43400;45.926;6.724;2022-09-16T03:35:15;3.00;2.60;1.80
57563;PMS7003;43400;45.926;6.724;2022-09-16T03:37:57;2.00;2.00;1.00
57563;PMS7003;43400;45.926;6.724;2022-09-16T03:40:31;2.00;2.00;1.60
57563;PMS7003;43400;45.926;6.724;2022-09-16T03:43:11;1.80;1.80;1.40
57563;PMS7003;43400;45.926;6.724;2022-09-16T03:45:43;2.00;2.00;2.00
57563;PMS7003;43400;45.926;6.724;2022-09-16T03:48:14;2.00;2.00;1.75
57563;PMS7003;43400;45.926;6.724;2022-09-16T03:50:46;2.00;2.00;2.00
57563;PMS7003;43400;45.926;6.724;2022-09-16T03:53:18;2.00;2.00;1.00
57563;PMS7003;43400;45.926;6.724;2022-09-16T03:55:50;1.00;1.00;1.00
57563;PMS7003;43400;45.926;6.724;2022-09-16T03:58:22;2.75;2.75;2.00
57563;PMS7003;43400;45.926;6.724;2022-09-16T04:00:53;1.00;1.00;1.00
57563;PMS7003;43400;45.926;6.724;2022-09-16T04:03:25;1.40;1.40;1.00
57563;PMS7003;43400;45.926;6.724;2022-09-16T04:05:57;1.80;1.80;1.80
57563;PMS7003;43400;45.926;6.724;2022-09-16T04:08:28;1.00;1.00;1.00
57563;PMS7003;43400;45.926;6.724;2022-09-16T04:11:02;2.00;2.00;1.00
57563;PMS7003;43400;45.926;6.724;2022-09-16T04:13:35;2.00;1.60;1.00
57563;PMS7003;43400;45.926;6.724;2022-09-16T04:16:06;3.60;3.00;3.00
57563;PMS7003;43400;45.926;6.724;2022-09-16T04:18:38;2.00;1.75;1.00
57563;PMS7003;43400;45.926;6.724;2022-09-16T04:21:09;1.75;1.00;1.00
57563;PMS7003;43400;45.926;6.724;2022-09-16T04:23:41;1.00;1.00;1.00
57563;PMS7003;43400;45.926;6.724;2022-09-16T04:26:13;3.20;3.00;2.20
57563;PMS7003;43400;45.926;6.724;2022-09-16T04:28:45;2.00;2.00;2.00
57563;PMS7003;43400;45.926;6.724;2022-09-16T04:31:17;1.75;1.75;1.75
57563;PMS7003;43400;45.926;6.724;2022-09-16T04:33:48;3.00;3.00;2.00
57563;PMS7003;43400;45.926;6.724;2022-09-16T04:36:20;2.60;2.20;2.00
57563;PMS7003;43400;45.926;6.724;2022-09-16T04:38:51;2.00;2.00;2.00
57563;PMS7003;43400;45.926;6.724;2022-09-16T04:41:24;2.60;2.00;1.60
57563;PMS7003;43400;45.926;6.724;2022-09-16T04:43:57;3.20;3.20;2.80
57563;PMS7003;43400;45.926;6.724;2022-09-16T04:46:30;3.00;3.00;2.20
57563;PMS7003;43400;45.926;6.724;2022-09-16T04:49:02;3.50;3.50;2.75
57563;PMS7003;43400;45.926;6.724;2022-09-16T04:51:34;2.40;2.40;2.40
57563;PMS7003;43400;45.926;6.724;2022-09-16T04:54:05;3.75;3.75;3.00
57563;PMS7003;43400;45.926;6.724;2022-09-16T04:56:37;2.00;2.00;2.00
57563;PMS7003;43400;45.926;6.724;2022-09-16T04:59:09;2.40;2.40;2.00
57563;PMS7003;43400;45.926;6.724;2022-09-16T05:01:40;4.75;4.75;4.00
57563;PMS7003;43400;45.926;6.724;2022-09-16T05:04:12;4.20;4.20;4.00
57563;PMS7003;43400;45.926;6.724;2022-09-16T05:06:44;3.00;3.00;3.00
57563;PMS7003;43400;45.926;6.724;2022-09-16T05:09:16;4.50;4.50;3.00
57563;PMS7003;43400;45.926;6.724;2022-09-16T05:11:47;5.25;5.25;5.00
57563;PMS7003;43400;45.926;6.724;2022-09-16T05:14:19;3.00;3.00;2.00
57563;PMS7003;43400;45.926;6.724;2022-09-16T05:16:51;4.00;4.00;3.00
57563;PMS7003;43400;45.926;6.724;2022-09-16T05:19:22;3.80;3.40;2.80
57563;PMS7003;43400;45.926;6.724;2022-09-16T05:21:54;3.00;3.00;3.00
57563;PMS7003;43400;45.926;6.724;2022-09-16T05:24:25;4.20;4.20;3.60
57563;PMS7003;43400;45.926;6.724;2022-09-16T05:26:57;7.00;6.40;4.60
57563;PMS7003;43400;45.926;6.724;2022-09-16T05:29:29;5.00;5.00;3.00
57563;PMS7003;43400;45.926;6.724;2022-09-16T05:32:00;5.00;5.00;4.00
57563;PMS7003;43400;45.926;6.724;2022-09-16T05:34:32;3.25;3.25;3.25
57563;PMS7003;43400;45.926;6.724;2022-09-16T05:37:04;5.00;4.00;3.00
57563;PMS7003;43400;45.926;6.724;2022-09-16T05:39:36;6.60;5.60;4.20
57563;PMS7003;43400;45.926;6.724;2022-09-16T05:42:07;5.00;5.00;4.25
57563;PMS7003;43400;45.926;6.724;2022-09-16T05:44:40;8.20;6.00;4.00
57563;PMS7003;43400;45.926;6.724;2022-09-16T05:47:11;7.00;7.00;4.60
57563;PMS7003;43400;45.926;6.724;2022-09-16T05:49:43;6.00;6.00;4.50
57563;PMS7003;43400;45.926;6.724;2022-09-16T05:52:15;9.00;7.00;5.00
57563;PMS7003;43400;45.926;6.724;2022-09-16T05:54:46;5.00;5.00;4.00
57563;PMS7003;43400;45.926;6.724;2022-09-16T05:57:18;5.80;5.80;4.80
57563;PMS7003;43400;45.926;6.724;2022-09-16T05:59:49;9.20;8.60;5.00
57563;PMS7003;43400;45.926;6.724;2022-09-16T06:02:21;8.50;8.50;5.25
57563;PMS7003;43400;45.926;6.724;2022-09-16T06:04:52;7.00;7.00;5.20
57563;PMS7003;43400;45.926;6.724;2022-09-16T06:07:24;9.00;6.00;5.00
57563;PMS7003;43400;45.926;6.724;2022-09-16T06:09:56;6.00;6.00;4.00
57563;PMS7003;43400;45.926;6.724;2022-09-16T06:12:27;7.00;7.00;5.00
57563;PMS7003;43400;45.926;6.724;2022-09-16T06:14:59;7.00;6.00;5.00
57563;PMS7003;43400;45.926;6.724;2022-09-16T06:17:31;9.00;6.00;5.50
57563;PMS7003;43400;45.926;6.724;2022-09-16T06:20:02;6.80;6.80;5.00
57563;PMS7003;43400;45.926;6.724;2022-09-16T06:22:34;9.40;8.20;5.20
57563;PMS7003;43400;45.926;6.724;2022-09-16T06:25:06;6.75;6.25;5.00
57563;PMS7003;43400;45.926;6.724;2022-09-16T06:27:37;7.20;6.80;5.00
57563;PMS7003;43400;45.926;6.724;2022-09-16T06:30:09;6.00;6.00;4.20
57563;PMS7003;43400;45.926;6.724;2022-09-16T06:32:41;7.00;7.00;5.25
57563;PMS7003;43400;45.926;6.724;2022-09-16T06:35:13;9.00;7.00;6.00
57563;PMS7003;43400;45.926;6.724;2022-09-16T06:37:44;7.50;7.00;5.50
57563;PMS7003;43400;45.926;6.724;2022-09-16T06:40:16;7.00;7.00;5.80
57563;PMS7003;43400;45.926;6.724;2022-09-16T06:42:48;9.50;9.50;5.75
57563;PMS7003;43400;45.926;6.724;2022-09-16T06:45:22;6.80;6.80;4.00
57563;PMS7003;43400;45.926;6.724;2022-09-16T06:47:57;7.00;6.00;5.00
57563;PMS7003;43400;45.926;6.724;2022-09-16T06:50:29;7.80;7.00;5.20
57563;PMS7003;43400;45.926;6.724;2022-09-16T06:53:00;11.75;9.75;6.75
57563;PMS7003;43400;45.926;6.724;2022-09-16T06:55:32;7.75;7.75;6.25
57563;PMS7003;43400;45.926;6.724;2022-09-16T06:58:04;10.25;10.00;7.00
57563;PMS7003;43400;45.926;6.724;2022-09-16T07:00:36;10.00;8.50;7.00
57563;PMS7003;43400;45.926;6.724;2022-09-16T07:03:07;10.00;8.00;6.00
57563;PMS7003;43400;45.926;6.724;2022-09-16T07:05:39;10.00;10.00;7.00
57563;PMS7003;43400;45.926;6.724;2022-09-16T07:08:10;10.75;8.00;6.25
57563;PMS7003;43400;45.926;6.724;2022-09-16T07:10:42;12.00;9.20;6.00
57563;PMS7003;43400;45.926;6.724;2022-09-16T07:13:13;11.20;9.00;5.80
57563;PMS7003;43400;45.926;6.724;2022-09-16T07:15:45;11.00;10.00;7.00
57563;PMS7003;43400;45.926;6.724;2022-09-16T07:18:16;11.25;10.25;7.00
57563;PMS7003;43400;45.926;6.724;2022-09-16T07:20:48;12.50;10.50;7.00
57563;PMS7003;43400;45.926;6.724;2022-09-16T07:23:20;10.00;10.00;7.00
57563;PMS7003;43400;45.926;6.724;2022-09-16T07:25:58;9.50;7.50;6.00
57563;PMS7003;43400;45.926;6.724;2022-09-16T07:28:37;10.00;10.00;7.75
57563;PMS7003;43400;45.926;6.724;2022-09-16T07:31:10;8.00;8.00;6.75
57563;PMS7003;43400;45.926;6.724;2022-09-16T07:33:44;6.00;5.25;4.00
57563;PMS7003;43400;45.926;6.724;2022-09-16T07:36:19;7.00;6.20;5.20
57563;PMS7003;43400;45.926;6.724;2022-09-16T07:38:55;8.00;7.00;5.50
57563;PMS7003;43400;45.926;6.724;2022-09-16T07:41:29;9.00;8.00;6.00
57563;PMS7003;43400;45.926;6.724;2022-09-16T07:44:03;10.00;10.00;7.00
57563;PMS7003;43400;45.926;6.724;2022-09-16T07:46:36;7.60;7.60;6.00
57563;PMS7003;43400;45.926;6.724;2022-09-16T07:49:09;7.00;7.00;6.00
57563;PMS7003;43400;45.926;6.724;2022-09-16T07:51:43;10.00;10.00;7.00
57563;PMS7003;43400;45.926;6.724;2022-09-16T07:54:15;8.40;8.40;7.00
57563;PMS7003;43400;45.926;6.724;2022-09-16T07:56:48;8.40;7.60;5.20
57563;PMS7003;43400;45.926;6.724;2022-09-16T07:59:21;7.75;7.75;6.00
57563;PMS7003;43400;45.926;6.724;2022-09-16T08:01:52;7.00;7.00;5.00
57563;PMS7003;43400;45.926;6.724;2022-09-16T08:04:24;6.50;6.50;6.00
57563;PMS7003;43400;45.926;6.724;2022-09-16T08:06:55;8.00;8.00;6.00
57563;PMS7003;43400;45.926;6.724;2022-09-16T08:09:27;9.00;9.00;6.00
57563;PMS7003;43400;45.926;6.724;2022-09-16T08:12:00;7.00;7.00;6.00
57563;PMS7003;43400;45.926;6.724;2022-09-16T08:14:33;7.00;7.00;6.25
57563;PMS7003;43400;45.926;6.724;2022-09-16T08:17:05;12.00;11.00;7.00
57563;PMS7003;43400;45.926;6.724;2022-09-16T08:19:37;9.00;8.75;6.00
57563;PMS7003;43400;45.926;6.724;2022-09-16T08:22:08;7.20;7.20;6.00
57563;PMS7003;43400;45.926;6.724;2022-09-16T08:24:40;7.80;7.80;6.60
57563;PMS7003;43400;45.926;6.724;2022-09-16T08:27:12;10.00;9.50;6.75
57563;PMS7003;43400;45.926;6.724;2022-09-16T08:29:44;5.40;5.40;5.00
57563;PMS7003;43400;45.926;6.724;2022-09-16T08:32:16;5.00;5.00;4.00
57563;PMS7003;43400;45.926;6.724;2022-09-16T08:34:47;5.00;5.00;4.00
57563;PMS7003;43400;45.926;6.724;2022-09-16T08:37:19;6.75;5.25;4.00
57563;PMS7003;43400;45.926;6.724;2022-09-16T08:39:51;4.75;4.75;4.75
57563;PMS7003;43400;45.926;6.724;2022-09-16T08:42:45;4.00;4.00;3.00
57563;PMS7003;43400;45.926;6.724;2022-09-16T08:45:35;8.50;7.75;5.25
57563;PMS7003;43400;45.926;6.724;2022-09-16T08:48:33;10.00;9.25;6.00
57563;PMS7003;43400;45.926;6.724;2022-09-16T08:51:22;6.00;5.00;4.00
57563;PMS7003;43400;45.926;6.724;2022-09-16T08:53:56;7.20;6.60;5.00
57563;PMS7003;43400;45.926;6.724;2022-09-16T08:56:32;2.20;2.20;2.20
57563;PMS7003;43400;45.926;6.724;2022-09-16T08:59:06;2.00;2.00;2.00
57563;PMS7003;43400;45.926;6.724;2022-09-16T09:04:20;3.00;3.00;3.00
57563;PMS7003;43400;45.926;6.724;2022-09-16T09:20:44;4.00;4.00;3.00
57563;PMS7003;43400;45.926;6.724;2022-09-16T09:23:47;3.00;3.00;2.75
57563;PMS7003;43400;45.926;6.724;2022-09-16T09:26:27;3.25;3.25;3.00
57563;PMS7003;43400;45.926;6.724;2022-09-16T09:29:21;4.00;4.00;3.20
57563;PMS7003;43400;45.926;6.724;2022-09-16T09:32:28;5.00;5.00;5.00
57563;PMS7003;43400;45.926;6.724;2022-09-16T09:40:47;5.20;5.20;4.00
57563;PMS7003;43400;45.926;6.724;2022-09-16T09:46:36;5.00;5.00;4.00
57563;PMS7003;43400;45.926;6.724;2022-09-16T09:49:25;5.00;4.00;3.00
57563;PMS7003;43400;45.926;6.724;2022-09-16T09:52:41;4.80;4.00;3.40
57563;PMS7003;43400;45.926;6.724;2022-09-16T09:55:31;5.00;5.00;4.00
57563;PMS7003;43400;45.926;6.724;2022-09-16T09:58:16;3.00;3.00;3.00
57563;PMS7003;43400;45.926;6.724;2022-09-16T10:00:52;4.80;4.80;3.00
57563;PMS7003;43400;45.926;6.724;2022-09-16T10:03:25;3.00;3.00;3.00
57563;PMS7003;43400;45.926;6.724;2022-09-16T10:05:58;4.00;4.00;3.25
57563;PMS7003;43400;45.926;6.724;2022-09-16T10:08:35;4.00;3.00;3.00
57563;PMS7003;43400;45.926;6.724;2022-09-16T10:11:22;3.00;3.00;2.00
57563;PMS7003;43400;45.926;6.724;2022-09-16T10:13:57;4.00;4.00;3.40
57563;PMS7003;43400;45.926;6.724;2022-09-16T10:16:33;3.00;3.00;2.25
57563;PMS7003;43400;45.926;6.724;2022-09-16T10:19:16;2.00;2.00;2.00
57563;PMS7003;43400;45.926;6.724;2022-09-16T10:22:09;5.00;4.00;3.60
57563;PMS7003;43400;45.926;6.724;2022-09-16T10:24:41;4.00;3.40;3.00
57563;PMS7003;43400;45.926;6.724;2022-09-16T10:30:17;5.00;4.40;4.00
57563;PMS7003;43400;45.926;6.724;2022-09-16T10:35:28;4.00;3.80;2.80
57563;PMS7003;43400;45.926;6.724;2022-09-16T10:38:26;4.75;4.75;4.00
57563;PMS7003;43400;45.926;6.724;2022-09-16T10:41:14;3.00;3.00;2.60
57563;PMS7003;43400;45.926;6.724;2022-09-16T10:43:57;5.60;5.60;4.60
57563;PMS7003;43400;45.926;6.724;2022-09-16T10:46:31;4.40;4.40;3.40
57563;PMS7003;43400;45.926;6.724;2022-09-16T10:49:10;3.80;3.20;3.00
57563;PMS7003;43400;45.926;6.724;2022-09-16T10:51:42;5.00;4.25;4.00
57563;PMS7003;43400;45.926;6.724;2022-09-16T10:54:24;5.00;5.00;4.00
57563;PMS7003;43400;45.926;6.724;2022-09-16T10:56:57;5.20;4.00;3.80
57563;PMS7003;43400;45.926;6.724;2022-09-16T10:59:29;5.00;5.00;3.60
57563;PMS7003;43400;45.926;6.724;2022-09-16T11:02:09;5.00;5.00;4.00
57563;PMS7003;43400;45.926;6.724;2022-09-16T11:05:06;4.80;4.80;4.00
57563;PMS7003;43400;45.926;6.724;2022-09-16T11:13:37;4.00;4.00;3.75
57563;PMS7003;43400;45.926;6.724;2022-09-16T11:21:57;6.00;6.00;4.00
57563;PMS7003;43400;45.926;6.724;2022-09-16T11:24:45;5.75;5.75;4.00
57563;PMS7003;43400;45.926;6.724;2022-09-16T11:30:35;4.00;3.75;3.00
57563;PMS7003;43400;45.926;6.724;2022-09-16T11:33:35;5.00;5.00;4.00
57563;PMS7003;43400;45.926;6.724;2022-09-16T11:36:17;4.80;4.80;4.00
57563;PMS7003;43400;45.926;6.724;2022-09-16T11:39:12;3.40;3.40;2.20
57563;PMS7003;43400;45.926;6.724;2022-09-16T11:59:02;4.40;4.40;4.00
57563;PMS7003;43400;45.926;6.724;2022-09-16T12:01:34;5.00;4.40;3.80
57563;PMS7003;43400;45.926;6.724;2022-09-16T12:07:23;3.75;3.75;3.00
57563;PMS7003;43400;45.926;6.724;2022-09-16T12:10:00;5.00;5.00;4.00
57563;PMS7003;43400;45.926;6.724;2022-09-16T12:12:45;5.20;5.00;4.00
57563;PMS7003;43400;45.926;6.724;2022-09-16T12:16:12;5.00;5.00;4.00
57563;PMS7003;43400;45.926;6.724;2022-09-16T12:18:52;5.25;4.75;4.00
57563;PMS7003;43400;45.926;6.724;2022-09-16T12:21:30;4.00;4.00;4.00
57563;PMS7003;43400;45.926;6.724;2022-09-16T12:24:12;4.25;4.25;3.00
57563;PMS7003;43400;45.926;6.724;2022-09-16T12:27:06;5.20;4.80;4.00
57563;PMS7003;43400;45.926;6.724;2022-09-16T12:35:01;5.00;5.00;4.00
57563;PMS7003;43400;45.926;6.724;2022-09-16T12:37:46;5.00;5.00;4.00
57563;PMS7003;43400;45.926;6.724;2022-09-16T12:40:26;3.60;3.60;3.20
57563;PMS7003;43400;45.926;6.724;2022-09-16T12:43:20;4.00;4.00;3.00
57563;PMS7003;43400;45.926;6.724;2022-09-16T12:56:57;4.00;4.00;3.00
57563;PMS7003;43400;45.926;6.724;2022-09-16T12:59:50;4.00;4.00;4.00
57563;PMS7003;43400;45.926;6.724;2022-09-16T13:02:52;4.80;4.00;3.00
57563;PMS7003;43400;45.926;6.724;2022-09-16T13:05:35;5.00;5.00;4.00
57563;PMS7003;43400;45.926;6.724;2022-09-16T13:08:19;4.00;4.00;3.00
57563;PMS7003;43400;45.926;6.724;2022-09-16T13:10:56;2.80;2.80;2.00
57563;PMS7003;43400;45.926;6.724;2022-09-16T13:13:34;3.00;3.00;2.75
57563;PMS7003;43400;45.926;6.724;2022-09-16T13:16:10;3.20;3.20;3.00
57563;PMS7003;43400;45.926;6.724;2022-09-16T13:21:28;3.00;3.00;3.00
57563;PMS7003;43400;45.926;6.724;2022-09-16T13:24:12;3.80;3.80;3.00
57563;PMS7003;43400;45.926;6.724;2022-09-16T13:26:52;4.75;4.00;3.75
57563;PMS7003;43400;45.926;6.724;2022-09-16T13:29:37;5.00;5.00;4.00
57563;PMS7003;43400;45.926;6.724;2022-09-16T13:37:52;4.00;4.00;3.00
57563;PMS7003;43400;45.926;6.724;2022-09-16T13:40:25;3.75;3.75;3.50
57563;PMS7003;43400;45.926;6.724;2022-09-16T13:43:03;4.00;4.00;3.00
57563;PMS7003;43400;45.926;6.724;2022-09-16T13:45:43;4.00;4.00;3.80
57563;PMS7003;43400;45.926;6.724;2022-09-16T13:48:20;3.25;3.25;3.00
57563;PMS7003;43400;45.926;6.724;2022-09-16T13:50:56;5.00;4.00;3.00
57563;PMS7003;43400;45.926;6.724;2022-09-16T13:53:30;4.00;3.80;3.00
57563;PMS7003;43400;45.926;6.724;2022-09-16T14:13:15;3.40;3.40;3.20
57563;PMS7003;43400;45.926;6.724;2022-09-16T14:15:50;5.00;5.00;4.75
57563;PMS7003;43400;45.926;6.724;2022-09-16T14:18:30;3.00;3.00;3.00
57563;PMS7003;43400;45.926;6.724;2022-09-16T14:21:20;4.60;4.60;3.80
57563;PMS7003;43400;45.926;6.724;2022-09-16T14:23:53;4.20;4.00;3.00
57563;PMS7003;43400;45.926;6.724;2022-09-16T14:26:25;4.00;4.00;3.00
57563;PMS7003;43400;45.926;6.724;2022-09-16T14:29:03;3.20;3.20;3.00
57563;PMS7003;43400;45.926;6.724;2022-09-16T14:31:35;4.00;4.00;3.00
57563;PMS7003;43400;45.926;6.724;2022-09-16T14:34:07;5.25;4.25;4.00
57563;PMS7003;43400;45.926;6.724;2022-09-16T14:36:41;4.00;4.00;4.00
57563;PMS7003;43400;45.926;6.724;2022-09-16T14:39:16;4.00;4.00;4.00
57563;PMS7003;43400;45.926;6.724;2022-09-16T14:41:58;3.00;3.00;2.25
57563;PMS7003;43400;45.926;6.724;2022-09-16T14:44:33;4.00;3.00;3.00
57563;PMS7003;43400;45.926;6.724;2022-09-16T14:49:51;5.75;5.00;4.00
57563;PMS7003;43400;45.926;6.724;2022-09-16T14:52:28;4.80;4.00;3.00
57563;PMS7003;43400;45.926;6.724;2022-09-16T14:55:05;4.00;4.00;3.00
57563;PMS7003;43400;45.926;6.724;2022-09-16T14:57:44;5.00;5.00;3.00
57563;PMS7003;43400;45.926;6.724;2022-09-16T15:00:16;4.00;4.00;4.00
57563;PMS7003;43400;45.926;6.724;2022-09-16T15:02:49;5.00;5.00;5.00
57563;PMS7003;43400;45.926;6.724;2022-09-16T15:05:33;4.00;4.00;4.00
57563;PMS7003;43400;45.926;6.724;2022-09-16T15:10:55;6.25;6.00;4.00
57563;PMS7003;43400;45.926;6.724;2022-09-16T15:13:29;4.67;4.67;4.00
57563;PMS7003;43400;45.926;6.724;2022-09-16T15:16:14;5.00;5.00;4.00
57563;PMS7003;43400;45.926;6.724;2022-09-16T15:18:52;7.00;6.00;4.80
57563;PMS7003;43400;45.926;6.724;2022-09-16T15:21:32;7.00;5.50;4.00
57563;PMS7003;43400;45.926;6.724;2022-09-16T15:24:14;4.75;4.75;4.00
57563;PMS7003;43400;45.926;6.724;2022-09-16T15:26:49;5.00;5.00;3.00
57563;PMS7003;43400;45.926;6.724;2022-09-16T15:31:54;4.00;4.00;3.25
57563;PMS7003;43400;45.926;6.724;2022-09-16T15:34:47;4.80;4.80;4.00
57563;PMS7003;43400;45.926;6.724;2022-09-16T15:37:28;5.00;5.00;5.00
57563;PMS7003;43400;45.926;6.724;2022-09-16T15:46:00;4.20;4.20;4.00
57563;PMS7003;43400;45.926;6.724;2022-09-16T15:48:35;4.00;4.00;3.25
57563;PMS7003;43400;45.926;6.724;2022-09-16T15:57:01;6.20;5.80;5.00
57563;PMS7003;43400;45.926;6.724;2022-09-16T15:59:35;6.00;5.00;4.00
57563;PMS7003;43400;45.926;6.724;2022-09-16T16:07:59;5.50;5.50;4.50
57563;PMS7003;43400;45.926;6.724;2022-09-16T16:10:32;5.80;5.80;5.00
57563;PMS7003;43400;45.926;6.724;2022-09-16T16:13:04;7.75;5.75;4.00
57563;PMS7003;43400;45.926;6.724;2022-09-16T16:15:36;6.00;6.00;5.00
57563;PMS7003;43400;45.926;6.724;2022-09-16T16:18:09;4.00;4.00;3.50
57563;PMS7003;43400;45.926;6.724;2022-09-16T16:20:42;6.80;6.80;5.80
57563;PMS7003;43400;45.926;6.724;2022-09-16T16:23:14;5.00;5.00;4.00
57563;PMS7003;43400;45.926;6.724;2022-09-16T16:25:45;5.00;5.00;4.75
57563;PMS7003;43400;45.926;6.724;2022-09-16T16:28:17;4.00;4.00;4.00
57563;PMS7003;43400;45.926;6.724;2022-09-16T16:30:48;5.00;5.00;4.60
57563;PMS7003;43400;45.926;6.724;2022-09-16T16:33:20;5.67;5.67;5.00
57563;PMS7003;43400;45.926;6.724;2022-09-16T16:35:52;4.75;4.75;4.00
57563;PMS7003;43400;45.926;6.724;2022-09-16T16:38:23;6.00;5.75;5.00
57563;PMS7003;43400;45.926;6.724;2022-09-16T16:40:55;5.20;5.20;5.00
57563;PMS7003;43400;45.926;6.724;2022-09-16T16:43:27;5.00;5.00;4.00
57563;PMS7003;43400;45.926;6.724;2022-09-16T16:45:59;5.20;5.20;4.60
57563;PMS7003;43400;45.926;6.724;2022-09-16T16:48:31;6.00;6.00;4.25
57563;PMS7003;43400;45.926;6.724;2022-09-16T16:51:04;5.00;5.00;4.00
57563;PMS7003;43400;45.926;6.724;2022-09-16T16:53:37;5.25;5.25;4.00
57563;PMS7003;43400;45.926;6.724;2022-09-16T16:56:10;5.00;5.00;4.00
57563;PMS7003;43400;45.926;6.724;2022-09-16T16:58:42;5.00;5.00;4.00
57563;PMS7003;43400;45.926;6.724;2022-09-16T17:01:15;4.00;4.00;4.00
57563;PMS7003;43400;45.926;6.724;2022-09-16T17:03:48;6.00;5.25;4.75
57563;PMS7003;43400;45.926;6.724;2022-09-16T17:06:19;6.00;5.60;4.20
57563;PMS7003;43400;45.926;6.724;2022-09-16T17:08:51;7.00;5.00;4.20
57563;PMS7003;43400;45.926;6.724;2022-09-16T17:11:23;6.00;5.00;4.00
57563;PMS7003;43400;45.926;6.724;2022-09-16T17:14:05;4.60;4.20;3.00
57563;PMS7003;43400;45.926;6.724;2022-09-16T17:16:37;5.00;5.00;5.00
57563;PMS7003;43400;45.926;6.724;2022-09-16T17:19:08;5.00;5.00;4.00
57563;PMS7003;43400;45.926;6.724;2022-09-16T17:21:40;6.00;5.00;4.00
57563;PMS7003;43400;45.926;6.724;2022-09-16T17:24:12;7.00;7.00;5.60
57563;PMS7003;43400;45.926;6.724;2022-09-16T17:26:44;5.60;4.00;4.00
57563;PMS7003;43400;45.926;6.724;2022-09-16T17:29:16;5.00;5.00;4.00
57563;PMS7003;43400;45.926;6.724;2022-09-16T17:31:48;5.00;5.00;5.00
57563;PMS7003;43400;45.926;6.724;2022-09-16T17:34:20;5.20;5.20;4.00
57563;PMS7003;43400;45.926;6.724;2022-09-16T17:36:51;4.25;4.25;4.00
57563;PMS7003;43400;45.926;6.724;2022-09-16T17:39:23;5.60;5.60;4.00
57563;PMS7003;43400;45.926;6.724;2022-09-16T17:41:55;7.20;6.20;4.40
57563;PMS7003;43400;45.926;6.724;2022-09-16T17:44:26;3.60;3.60;3.00
57563;PMS7003;43400;45.926;6.724;2022-09-16T17:46:58;7.00;7.00;5.25
57563;PMS7003;43400;45.926;6.724;2022-09-16T17:49:30;4.00;3.60;3.00
57563;PMS7003;43400;45.926;6.724;2022-09-16T17:52:01;5.00;5.00;4.00
57563;PMS7003;43400;45.926;6.724;2022-09-16T17:54:33;5.60;5.20;5.00
57563;PMS7003;43400;45.926;6.724;2022-09-16T17:57:05;4.40;4.00;3.00
57563;PMS7003;43400;45.926;6.724;2022-09-16T17:59:36;5.40;5.00;4.00
57563;PMS7003;43400;45.926;6.724;2022-09-16T18:02:08;5.80;5.80;5.00
57563;PMS7003;43400;45.926;6.724;2022-09-16T18:04:40;7.00;6.00;4.00
57563;PMS7003;43400;45.926;6.724;2022-09-16T18:07:12;5.25;5.25;5.00
57563;PMS7003;43400;45.926;6.724;2022-09-16T18:09:43;6.00;6.00;5.25
57563;PMS7003;43400;45.926;6.724;2022-09-16T18:12:15;5.20;5.00;4.00
57563;PMS7003;43400;45.926;6.724;2022-09-16T18:14:47;6.00;6.00;5.00
57563;PMS7003;43400;45.926;6.724;2022-09-16T18:17:18;4.60;4.60;4.00